Date,TemperatureHighF,TemperatureAvgF,TemperatureLowF,DewpointHighF,DewpointAvgF,DewpointLowF,HumidityHigh,HumidityAvg,HumidityLow,PressureMaxIn,PressureMinIn,WindSpeedMaxMPH,WindSpeedAvgMPH,GustSpeedMaxMPH,PrecipitationSumIn
2013-3-1,47.5,33.1,17.8,24.3,18.3,8.5,69,55,39,29.98,29.88,7,0,7,0.00
2013-3-2,61.9,42.2,25.3,34.4,26.3,17.7,74,56,33,29.97,29.74,7,0,7,0.00
2013-3-3,64.2,48.6,36.7,30.6,26.4,22.2,63,44,26,29.74,29.41,17,2,17,0.00
2013-3-4,49.3,31.3,18.1,27.6,20.5,11.7,77,65,40,29.89,29.42,10,1,10,0.06
2013-3-5,42.6,26.1,10.2,22.8,13.8,4.3,77,61,39,29.94,29.82,8,0,8,0.00
2013-3-6,57.4,37.3,19.6,32.2,23.3,12.5,76,59,36,29.83,29.58,7,0,7,0.00
2013-3-7,67.8,46.1,31.5,35.1,26.6,20.6,69,49,24,29.70,29.58,7,0,7,0.00
2013-3-8,52.7,36.6,26.2,33.5,26.0,18.3,78,66,47,29.70,29.44,4,0,4,0.00
2013-3-9,36.1,33.2,29.1,31.0,25.7,13.6,85,75,50,29.79,29.40,8,0,8,0.28
2013-3-10,51.4,34.1,16.9,24.5,17.6,8.4,70,53,33,29.82,29.72,0,-4,0,0.02
2013-3-11,60.6,40.9,28.4,27.9,23.7,18.8,82,54,27,29.84,29.60,22,1,22,0.00
2013-3-12,37.6,30.2,25.2,26.9,23.1,19.7,82,75,63,29.98,29.84,0,0,0,0.12
2013-3-13,66.4,43.6,25.3,38.9,29.1,20.6,83,60,33,29.96,29.85,0,0,0,0.00
2013-3-14,75.2,54.2,35.2,35.8,28.5,23.0,65,40,18,29.99,29.84,8,0,8,0.00
2013-3-15,80.8,61.3,44.8,35.0,28.4,23.5,48,30,18,29.84,29.60,15,1,15,0.00
2013-3-16,59.5,46.4,35.2,34.0,29.2,24.8,68,52,33,29.75,29.56,9,0,9,0.00
2013-3-17,61.3,42.5,27.7,31.9,23.0,7.8,73,49,25,29.57,29.32,20,2,20,0.00
2013-3-18,54.1,41.2,32.5,17.5,11.8,3.0,46,30,22,29.65,29.56,16,3,16,0.00
2013-3-19,59.9,44.6,24.6,16.1,8.1,-0.5,58,25,12,30.02,29.64,18,2,18,0.00
2013-3-20,53.2,34.8,17.8,24.8,17.3,9.1,70,51,32,30.01,29.49,8,0,8,0.00
2013-3-21,60.4,41.8,27.1,36.2,22.3,8.9,65,47,27,29.56,29.32,16,1,16,0.02
2013-3-22,48.6,32.0,21.7,26.0,18.0,9.3,80,58,37,29.65,29.46,12,0,12,0.00
2013-3-23,26.6,21.3,11.3,21.2,14.9,4.4,81,76,70,29.86,29.62,0,0,0,0.00
2013-3-24,34.3,19.7,3.9,18.5,9.6,-2.6,76,65,49,29.87,29.76,0,0,0,0.12
2013-3-25,38.5,24.7,13.3,20.2,13.0,6.5,75,62,42,29.92,29.85,6,0,6,0.00
2013-3-26,50.2,33.5,17.4,30.1,19.8,8.6,71,58,44,29.86,29.64,6,0,6,0.00
2013-3-27,58.8,41.4,28.2,36.1,28.7,21.5,77,62,40,29.81,29.71,0,0,0,0.00
2013-3-28,66.4,46.6,28.9,39.3,30.4,23.7,81,57,31,29.84,29.76,1,0,1,0.00
2013-3-29,67.8,50.8,38.8,36.2,30.7,26.4,64,48,30,29.84,29.76,16,1,16,0.00
2013-3-30,72.9,48.6,32.9,37.5,30.9,24.1,75,54,24,29.92,29.74,19,1,19,0.00
2013-3-31,72.7,50.3,30.0,37.5,29.8,23.5,82,51,24,29.91,29.66,8,0,8,0.00